Time;durP1;ratioP1;P1;durP2;ratioP2;P2;SDS_P1;SDS_P2;PMS_P1;PMS_P2;Temp;Humidity;BMP_temperature;BMP_pressure;BME280_temperature;BME280_humidity;BME280_pressure;Samples;Min_cycle;Max_cycle;Signal;HPM_P1;HPM_P2
2022/03/05 00:00:58;;;;;;;3.47;2.93;;;;;;;;;;5053566;28;20279;-63
2022/03/05 00:03:29;;;;;;;5.03;3.57;;;;;;;;;;5073717;28;20197;-63
2022/03/05 00:06:04;;;;;;;3.80;2.90;;;;;;;;;;5050131;28;20216;-63
2022/03/05 00:08:35;;;;;;;3.90;3.47;;;;;;;;;;5065339;28;20193;-62
2022/03/05 00:11:05;;;;;;;3.63;3.00;;;;;;;;;;5040195;28;20229;-61
2022/03/05 00:13:38;;;;;;;4.00;3.60;;;;;;;;;;5045246;28;20226;-61
2022/03/05 00:16:07;;;;;;;4.83;3.63;;;;;;;;;;5064852;28;20274;-62
2022/03/05 00:18:41;;;;;;;3.97;3.40;;;;;;;;;;5052886;28;20277;-63
2022/03/05 00:21:12;;;;;;;4.37;3.70;;;;;;;;;;5082372;28;20265;-62
2022/03/05 00:23:42;;;;;;;4.40;3.80;;;;;;;;;;5048437;28;20663;-62
2022/03/05 00:26:16;;;;;;;5.20;3.70;;;;;;;;;;5065250;28;20214;-63
2022/03/05 00:28:51;;;;;;;4.30;3.70;;;;;;;;;;5069163;28;20201;-62
2022/03/05 00:31:22;;;;;;;7.07;3.97;;;;;;;;;;5054050;28;20220;-62
2022/03/05 00:33:52;;;;;;;5.27;4.10;;;;;;;;;;5062615;28;20198;-62
2022/03/05 00:36:22;;;;;;;5.80;4.40;;;;;;;;;;5066715;28;20208;-61
2022/03/05 00:38:53;;;;;;;8.27;4.30;;;;;;;;;;5067430;28;20212;-63
2022/03/05 00:41:25;;;;;;;5.63;3.70;;;;;;;;;;5067976;28;20224;-63
2022/03/05 00:43:58;;;;;;;7.33;4.87;;;;;;;;;;5065520;28;20197;-63
2022/03/05 00:46:27;;;;;;;5.63;4.23;;;;;;;;;;5060687;28;20682;-62
2022/03/05 00:49:05;;;;;;;6.97;4.67;;;;;;;;;;5069820;28;20204;-63
2022/03/05 00:51:36;;;;;;;6.43;5.03;;;;;;;;;;5079836;28;20220;-64
2022/03/05 00:54:05;;;;;;;5.73;4.30;;;;;;;;;;5067586;28;20197;-62
2022/03/05 00:56:37;;;;;;;6.90;5.60;;;;;;;;;;5065174;28;20198;-61
2022/03/05 00:59:08;;;;;;;5.43;4.60;;;;;;;;;;5064236;28;20878;-61
2022/03/05 01:01:37;;;;;;;6.27;4.27;;;;;;;;;;5067685;28;20263;-62
2022/03/05 01:04:06;;;;;;;6.80;4.57;;;;;;;;;;5048142;28;20197;-61
2022/03/05 01:06:38;;;;;;;5.17;4.60;;;;;;;;;;5048336;28;20303;-62
2022/03/05 01:09:09;;;;;;;7.43;5.40;;;;;;;;;;5052272;28;20213;-62
2022/03/05 01:11:37;;;;;;;7.60;5.77;;;;;;;;;;5047365;28;20489;-61
2022/03/05 01:14:07;;;;;;;7.23;5.53;;;;;;;;;;5061626;28;20190;-63
2022/03/05 01:16:40;;;;;;;7.27;5.20;;;;;;;;;;5065337;28;20236;-62
2022/03/05 01:19:08;;;;;;;7.43;5.13;;;;;;;;;;5067744;28;20470;-62
2022/03/05 01:21:36;;;;;;;6.30;5.70;;;;;;;;;;5072553;28;20221;-61
2022/03/05 01:24:05;;;;;;;5.90;5.30;;;;;;;;;;5064483;28;20201;-62
2022/03/05 01:26:36;;;;;;;7.40;5.87;;;;;;;;;;5066880;28;20202;-62
2022/03/05 01:29:08;;;;;;;6.57;5.20;;;;;;;;;;5048589;28;20208;-62
2022/03/05 01:31:36;;;;;;;6.83;5.70;;;;;;;;;;5064316;28;20226;-62
2022/03/05 01:34:04;;;;;;;8.37;5.73;;;;;;;;;;5065058;28;20673;-62
2022/03/05 01:36:38;;;;;;;6.40;5.63;;;;;;;;;;5067545;28;20198;-62
2022/03/05 01:39:10;;;;;;;6.87;5.90;;;;;;;;;;5062269;28;20197;-61
2022/03/05 01:41:40;;;;;;;6.70;5.97;;;;;;;;;;5048722;28;20229;-61
2022/03/05 01:44:11;;;;;;;6.17;5.57;;;;;;;;;;5072648;28;20197;-62
2022/03/05 01:46:44;;;;;;;9.07;5.83;;;;;;;;;;5074144;28;20209;-62
2022/03/05 01:49:15;;;;;;;6.57;5.43;;;;;;;;;;5080838;28;20224;-61
2022/03/05 01:51:44;;;;;;;6.50;5.80;;;;;;;;;;5039376;28;20233;-61
2022/03/05 01:54:18;;;;;;;6.90;6.20;;;;;;;;;;5076350;28;20198;-61
2022/03/05 01:56:50;;;;;;;6.37;5.53;;;;;;;;;;5073009;28;20198;-60
2022/03/05 01:59:20;;;;;;;7.77;6.10;;;;;;;;;;5065400;28;20221;-61
2022/03/05 02:01:50;;;;;;;7.90;6.83;;;;;;;;;;5064952;28;20209;-62
2022/03/05 02:04:21;;;;;;;7.23;6.03;;;;;;;;;;5066374;28;20217;-62
2022/03/05 02:06:55;;;;;;;6.93;6.07;;;;;;;;;;5065592;28;20712;-63
2022/03/05 02:09:28;;;;;;;7.20;6.10;;;;;;;;;;5061936;28;20335;-62
2022/03/05 02:11:58;;;;;;;6.47;5.87;;;;;;;;;;5061821;28;20737;-62
2022/03/05 02:14:29;;;;;;;8.03;6.30;;;;;;;;;;5072793;28;20205;-61
2022/03/05 02:17:04;;;;;;;8.50;6.00;;;;;;;;;;5065404;28;20206;-62
2022/03/05 02:19:34;;;;;;;6.93;6.23;;;;;;;;;;5064984;28;20197;-62
2022/03/05 02:22:17;;;;;;;8.53;7.37;;;;;;;;;;5043496;28;20297;-62
2022/03/05 02:24:49;;;;;;;7.07;6.37;;;;;;;;;;5049636;28;20289;-61
2022/03/05 02:27:23;;;;;;;7.30;6.53;;;;;;;;;;5031437;28;20209;-61
2022/03/05 02:29:56;;;;;;;7.90;7.10;;;;;;;;;;5044848;28;20210;-62
2022/03/05 02:32:28;;;;;;;8.17;6.27;;;;;;;;;;5036462;28;20213;-61
2022/03/05 02:35:00;;;;;;;7.63;6.60;;;;;;;;;;5055483;28;20312;-63
2022/03/05 02:37:27;;;;;;;7.70;6.90;;;;;;;;;;5056486;28;20210;-63
2022/03/05 02:40:02;;;;;;;8.67;6.73;;;;;;;;;;5044595;28;20194;-62
2022/03/05 02:42:32;;;;;;;6.87;6.13;;;;;;;;;;5049084;28;20209;-63
2022/03/05 02:45:04;;;;;;;9.33;6.97;;;;;;;;;;5055896;28;20195;-63
2022/03/05 02:47:36;;;;;;;10.27;7.50;;;;;;;;;;5044471;28;20198;-64
2022/03/05 02:50:05;;;;;;;7.60;6.80;;;;;;;;;;5051181;28;20437;-63
2022/03/05 02:52:34;;;;;;;9.27;7.60;;;;;;;;;;5056991;28;20236;-63
2022/03/05 02:55:07;;;;;;;7.83;7.03;;;;;;;;;;5045818;28;20202;-63
2022/03/05 02:57:37;;;;;;;8.47;7.33;;;;;;;;;;5031500;28;20255;-63
2022/03/05 03:00:05;;;;;;;8.40;6.97;;;;;;;;;;5044494;28;20225;-63
2022/03/05 03:02:35;;;;;;;8.10;7.30;;;;;;;;;;5044637;28;20204;-64
2022/03/05 03:05:07;;;;;;;9.10;7.97;;;;;;;;;;5042790;28;20198;-64
2022/03/05 03:07:38;;;;;;;7.77;6.67;;;;;;;;;;5044166;28;20194;-64
2022/03/05 03:10:09;;;;;;;8.13;7.30;;;;;;;;;;5043074;28;20210;-64
2022/03/05 03:12:40;;;;;;;9.37;8.40;;;;;;;;;;5046150;28;20256;-63
2022/03/05 03:15:13;;;;;;;7.50;6.77;;;;;;;;;;5032525;28;20194;-63
2022/03/05 03:17:43;;;;;;;8.40;7.50;;;;;;;;;;5055154;28;20205;-64
2022/03/05 03:20:12;;;;;;;8.60;7.37;;;;;;;;;;5046342;28;20686;-64
2022/03/05 03:22:47;;;;;;;7.30;6.60;;;;;;;;;;5048031;28;20244;-63
2022/03/05 03:25:24;;;;;;;9.03;7.80;;;;;;;;;;5068739;28;20212;-63
2022/03/05 03:27:56;;;;;;;8.47;7.33;;;;;;;;;;5065675;28;20654;-64
2022/03/05 03:30:27;;;;;;;7.53;6.53;;;;;;;;;;5067212;28;20209;-64
2022/03/05 03:32:59;;;;;;;8.93;8.03;;;;;;;;;;5052488;28;20623;-62
2022/03/05 03:35:27;;;;;;;7.90;6.93;;;;;;;;;;5049214;28;20555;-63
2022/03/05 03:37:56;;;;;;;9.10;7.30;;;;;;;;;;5079643;28;20230;-64
2022/03/05 03:40:27;;;;;;;8.40;7.60;;;;;;;;;;5067210;28;20194;-63
2022/03/05 03:42:57;;;;;;;8.17;7.37;;;;;;;;;;5070516;28;20209;-63
2022/03/05 03:45:28;;;;;;;7.93;7.13;;;;;;;;;;5053346;28;20228;-63
2022/03/05 03:47:58;;;;;;;8.73;7.67;;;;;;;;;;5064284;28;20295;-63
2022/03/05 03:50:30;;;;;;;8.43;7.37;;;;;;;;;;5086376;28;20213;-63
2022/03/05 03:52:59;;;;;;;9.27;8.03;;;;;;;;;;5070090;28;20223;-64
2022/03/05 03:55:28;;;;;;;8.50;7.60;;;;;;;;;;5068808;28;20201;-63
2022/03/05 03:57:57;;;;;;;8.07;7.27;;;;;;;;;;5063788;28;20209;-63
2022/03/05 04:00:28;;;;;;;8.77;7.67;;;;;;;;;;5051052;28;20202;-63
2022/03/05 04:03:00;;;;;;;8.07;7.10;;;;;;;;;;5068277;28;20209;-63
2022/03/05 04:05:29;;;;;;;9.23;8.20;;;;;;;;;;5071368;28;20665;-62
2022/03/05 04:10:44;;;;;;;8.57;7.27;;;;;;;;;;5041519;28;20233;-64
2022/03/05 04:13:16;;;;;;;8.60;7.70;;;;;;;;;;5067334;28;20198;-62
2022/03/05 04:15:51;;;;;;;8.30;7.23;;;;;;;;;;5066834;28;20194;-63
2022/03/05 04:18:22;;;;;;;10.47;7.77;;;;;;;;;;5068701;28;20263;-63
2022/03/05 04:20:53;;;;;;;8.53;7.73;;;;;;;;;;5067434;28;20241;-64
2022/03/05 04:23:23;;;;;;;9.30;8.30;;;;;;;;;;5069482;28;20248;-63
2022/03/05 04:25:53;;;;;;;9.37;7.60;;;;;;;;;;5061803;28;20738;-63
2022/03/05 04:28:26;;;;;;;12.53;7.57;;;;;;;;;;5048715;28;20213;-63
2022/03/05 04:30:55;;;;;;;9.47;7.50;;;;;;;;;;5039436;28;20234;-63
2022/03/05 04:33:25;;;;;;;8.30;7.30;;;;;;;;;;5087186;28;20643;-63
2022/03/05 04:35:54;;;;;;;9.23;8.33;;;;;;;;;;5054265;28;20207;-64
2022/03/05 04:38:25;;;;;;;11.80;8.40;;;;;;;;;;5040746;28;20201;-63
2022/03/05 04:40:56;;;;;;;10.60;7.80;;;;;;;;;;5085182;28;20663;-64
2022/03/05 04:43:25;;;;;;;8.30;7.40;;;;;;;;;;5072486;28;20217;-63
2022/03/05 04:45:55;;;;;;;9.13;7.80;;;;;;;;;;5063495;28;20214;-65
2022/03/05 04:48:28;;;;;;;8.33;7.40;;;;;;;;;;5066652;28;20201;-63
2022/03/05 04:51:01;;;;;;;9.10;7.43;;;;;;;;;;5065466;28;20212;-63
2022/03/05 04:53:30;;;;;;;9.00;7.33;;;;;;;;;;5059562;28;20216;-63
2022/03/05 04:55:59;;;;;;;8.63;7.73;;;;;;;;;;5062880;28;20209;-62
2022/03/05 04:58:30;;;;;;;9.57;7.30;;;;;;;;;;5065172;28;20205;-63
2022/03/05 05:01:06;;;;;;;9.87;7.43;;;;;;;;;;5056373;28;20201;-63
2022/03/05 05:03:36;;;;;;;8.17;7.37;;;;;;;;;;5067107;28;20209;-63
2022/03/05 05:06:06;;;;;;;9.50;7.77;;;;;;;;;;5066875;28;20201;-63
2022/03/05 05:08:38;;;;;;;9.17;7.33;;;;;;;;;;5050735;28;20666;-64
2022/03/05 05:11:10;;;;;;;9.47;7.57;;;;;;;;;;5043034;28;20240;-64
2022/03/05 05:13:40;;;;;;;9.23;7.77;;;;;;;;;;5068309;28;20221;-63
2022/03/05 05:16:12;;;;;;;10.13;7.73;;;;;;;;;;5066604;28;20235;-63
2022/03/05 05:19:31;;;;;;;9.23;7.53;;;;;;;;;;5068637;28;20282;-63
2022/03/05 05:21:40;;;;;;;9.50;8.07;;;;;;;;;;5055729;28;20229;-62
2022/03/05 05:24:09;;;;;;;9.13;7.70;;;;;;;;;;5032158;28;20246;-64
2022/03/05 05:26:45;;;;;;;10.33;8.13;;;;;;;;;;5063793;28;20190;-63
2022/03/05 05:29:14;;;;;;;9.00;7.40;;;;;;;;;;5067439;28;20225;-63
2022/03/05 05:32:11;;;;;;;9.73;8.47;;;;;;;;;;5060777;28;20277;-63
2022/03/05 05:34:41;;;;;;;10.23;8.50;;;;;;;;;;5065776;28;20242;-63
2022/03/05 05:37:21;;;;;;;8.40;7.30;;;;;;;;;;5070990;28;20676;-63
2022/03/05 05:39:51;;;;;;;9.30;7.90;;;;;;;;;;5064484;28;20204;-64
2022/03/05 05:42:24;;;;;;;9.83;8.83;;;;;;;;;;5044548;28;20357;-64
2022/03/05 05:44:56;;;;;;;9.40;8.30;;;;;;;;;;5073118;28;20963;-63
2022/03/05 05:47:27;;;;;;;10.77;8.50;;;;;;;;;;5061692;28;20224;-63
2022/03/05 05:50:02;;;;;;;11.53;8.97;;;;;;;;;;5065684;28;20206;-63
2022/03/05 05:52:34;;;;;;;10.27;8.93;;;;;;;;;;5051381;28;20222;-62
2022/03/05 05:55:05;;;;;;;10.53;9.03;;;;;;;;;;5073706;28;20204;-62
2022/03/05 05:57:36;;;;;;;10.83;9.03;;;;;;;;;;5073883;28;20266;-62
2022/03/05 06:00:09;;;;;;;10.97;8.57;;;;;;;;;;5073339;28;20231;-62
2022/03/05 06:03:30;;;;;;;9.83;8.30;;;;;;;;;;5060706;28;20573;-62
2022/03/05 06:06:05;;;;;;;11.67;9.77;;;;;;;;;;5060323;28;20190;-63
2022/03/05 06:08:37;;;;;;;10.93;8.67;;;;;;;;;;5066669;28;20209;-62
2022/03/05 06:11:08;;;;;;;9.67;8.67;;;;;;;;;;5063696;28;20226;-64
2022/03/05 06:13:38;;;;;;;11.13;9.23;;;;;;;;;;5066235;28;20689;-63
2022/03/05 06:16:10;;;;;;;12.00;9.73;;;;;;;;;;5055357;28;21584;-62
2022/03/05 06:18:44;;;;;;;10.53;9.20;;;;;;;;;;5057875;28;20197;-62
2022/03/05 06:21:12;;;;;;;11.20;9.83;;;;;;;;;;5075255;28;20225;-61
2022/03/05 06:23:44;;;;;;;11.20;10.00;;;;;;;;;;5065217;28;20545;-61
2022/03/05 06:26:25;;;;;;;10.67;9.23;;;;;;;;;;5049484;28;20250;-65
2022/03/05 06:28:55;;;;;;;11.37;9.33;;;;;;;;;;5057390;28;20678;-62
2022/03/05 06:31:26;;;;;;;11.10;9.87;;;;;;;;;;5063205;28;20275;-63
2022/03/05 06:33:53;;;;;;;11.47;9.43;;;;;;;;;;5063137;28;20197;-61
2022/03/05 06:36:24;;;;;;;12.93;10.23;;;;;;;;;;5055756;28;20221;-64
2022/03/05 06:38:57;;;;;;;10.70;9.33;;;;;;;;;;5040469;28;20206;-64
2022/03/05 06:41:29;;;;;;;11.77;9.03;;;;;;;;;;5072750;28;20278;-62
2022/03/05 06:43:58;;;;;;;12.70;9.70;;;;;;;;;;5049502;28;20225;-61
2022/03/05 06:46:29;;;;;;;10.53;9.43;;;;;;;;;;5068663;28;20255;-62
2022/03/05 06:48:59;;;;;;;11.67;9.23;;;;;;;;;;5071047;28;20197;-63
2022/03/05 06:51:28;;;;;;;11.30;9.60;;;;;;;;;;5050568;28;20221;-61
2022/03/05 06:53:59;;;;;;;12.87;10.67;;;;;;;;;;5053265;28;20430;-61
2022/03/05 06:56:28;;;;;;;12.23;9.97;;;;;;;;;;5051727;28;20209;-62
2022/03/05 06:58:59;;;;;;;12.60;9.13;;;;;;;;;;5084017;28;20259;-62
2022/03/05 07:01:31;;;;;;;11.30;9.63;;;;;;;;;;5078087;28;20243;-64
2022/03/05 07:04:03;;;;;;;12.17;9.83;;;;;;;;;;5077308;28;20227;-63
2022/03/05 07:06:37;;;;;;;12.30;9.60;;;;;;;;;;5078731;28;20209;-61
2022/03/05 07:09:18;;;;;;;12.80;10.13;;;;;;;;;;5067553;28;20217;-61
2022/03/05 07:11:45;;;;;;;12.47;10.27;;;;;;;;;;5054732;28;20234;-61
2022/03/05 07:14:30;;;;;;;13.07;10.77;;;;;;;;;;5046512;28;20282;-64
2022/03/05 07:17:05;;;;;;;12.67;10.47;;;;;;;;;;5053685;28;20209;-63
2022/03/05 07:19:37;;;;;;;12.03;9.63;;;;;;;;;;5067415;28;20203;-62
2022/03/05 07:22:07;;;;;;;14.37;10.33;;;;;;;;;;5068197;28;20661;-63
2022/03/05 07:24:37;;;;;;;13.30;10.07;;;;;;;;;;5070870;28;20222;-64
2022/03/05 07:27:07;;;;;;;12.50;10.40;;;;;;;;;;5039450;28;20216;-63
2022/03/05 07:29:43;;;;;;;14.87;11.60;;;;;;;;;;5059606;28;20212;-60
2022/03/05 07:32:13;;;;;;;12.20;10.30;;;;;;;;;;5057602;28;20586;-62
2022/03/05 07:34:45;;;;;;;13.00;10.47;;;;;;;;;;5053882;28;20205;-62
2022/03/05 07:37:16;;;;;;;12.20;10.27;;;;;;;;;;5081865;28;20204;-61
2022/03/05 07:39:46;;;;;;;14.03;11.10;;;;;;;;;;5049981;28;20214;-61
2022/03/05 07:42:19;;;;;;;12.70;10.40;;;;;;;;;;5069530;28;20202;-62
2022/03/05 07:44:52;;;;;;;13.90;11.23;;;;;;;;;;5071524;28;20201;-62
2022/03/05 07:47:23;;;;;;;13.47;10.27;;;;;;;;;;5081808;28;20285;-62
2022/03/05 07:49:53;;;;;;;13.80;11.03;;;;;;;;;;5069606;28;20217;-64
2022/03/05 07:52:23;;;;;;;14.87;11.13;;;;;;;;;;5069293;28;20214;-61
2022/03/05 07:54:53;;;;;;;14.13;10.63;;;;;;;;;;5052161;28;20205;-61
2022/03/05 07:57:21;;;;;;;14.27;11.47;;;;;;;;;;5071624;28;20217;-65
2022/03/05 07:59:51;;;;;;;12.50;10.40;;;;;;;;;;5061634;28;20627;-62
2022/03/05 08:02:42;;;;;;;13.50;10.90;;;;;;;;;;5053640;28;20272;-63
2022/03/05 08:05:15;;;;;;;14.10;11.07;;;;;;;;;;5084986;28;20213;-61
2022/03/05 08:07:45;;;;;;;14.10;11.23;;;;;;;;;;5060841;28;21238;-61
2022/03/05 08:10:12;;;;;;;15.87;11.53;;;;;;;;;;5065304;28;20214;-63
2022/03/05 08:12:42;;;;;;;17.40;11.93;;;;;;;;;;5053711;28;20222;-63
2022/03/05 08:15:12;;;;;;;14.77;10.93;;;;;;;;;;5051768;28;20193;-61
2022/03/05 08:17:59;;;;;;;14.10;11.33;;;;;;;;;;5067763;28;20213;-61
2022/03/05 08:20:30;;;;;;;14.33;11.30;;;;;;;;;;5068697;28;20233;-61
2022/03/05 08:23:05;;;;;;;14.83;10.93;;;;;;;;;;5066369;28;20214;-61
2022/03/05 08:25:34;;;;;;;14.40;11.00;;;;;;;;;;5069369;28;20202;-64
2022/03/05 08:28:06;;;;;;;14.97;11.10;;;;;;;;;;5066954;28;20267;-63
2022/03/05 08:30:36;;;;;;;14.20;11.53;;;;;;;;;;5077214;28;20816;-61
2022/03/05 08:33:04;;;;;;;14.63;10.93;;;;;;;;;;5070003;28;20220;-60
2022/03/05 08:35:35;;;;;;;17.40;11.47;;;;;;;;;;5056775;28;20212;-63
2022/03/05 08:38:04;;;;;;;16.93;11.63;;;;;;;;;;5055496;28;20206;-63
2022/03/05 08:40:36;;;;;;;15.77;11.17;;;;;;;;;;5057070;28;20193;-63
2022/03/05 08:43:08;;;;;;;13.97;10.50;;;;;;;;;;5060237;28;20645;-63
2022/03/05 08:45:39;;;;;;;13.87;10.90;;;;;;;;;;5055708;28;20705;-62
2022/03/05 08:48:10;;;;;;;14.13;11.37;;;;;;;;;;5061770;28;20569;-61
2022/03/05 08:50:41;;;;;;;14.57;11.23;;;;;;;;;;5063985;28;20206;-64
2022/03/05 08:53:13;;;;;;;15.70;10.93;;;;;;;;;;5067814;28;20213;-63
2022/03/05 08:55:43;;;;;;;20.07;11.63;;;;;;;;;;5064964;28;20202;-61
2022/03/05 08:58:13;;;;;;;17.37;11.37;;;;;;;;;;5060464;28;20224;-62
2022/03/05 09:00:42;;;;;;;17.63;12.07;;;;;;;;;;5071103;28;20259;-62
2022/03/05 09:03:12;;;;;;;17.43;10.73;;;;;;;;;;5056746;28;20205;-61
2022/03/05 09:05:41;;;;;;;15.93;11.07;;;;;;;;;;5051358;28;20213;-61
2022/03/05 09:08:11;;;;;;;14.37;11.07;;;;;;;;;;5064774;28;20205;-61
2022/03/05 09:10:40;;;;;;;15.07;10.50;;;;;;;;;;5058913;28;20274;-61
2022/03/05 09:13:14;;;;;;;20.00;11.93;;;;;;;;;;5062732;28;20296;-61
2022/03/05 09:15:45;;;;;;;20.40;12.43;;;;;;;;;;5039030;28;20812;-63
2022/03/05 09:18:16;;;;;;;18.43;12.00;;;;;;;;;;5063883;28;20232;-62
2022/03/05 09:20:49;;;;;;;20.67;12.10;;;;;;;;;;5055014;28;20226;-61
2022/03/05 09:23:20;;;;;;;19.43;12.20;;;;;;;;;;5040938;28;20260;-61
2022/03/05 09:25:55;;;;;;;17.53;12.03;;;;;;;;;;5042394;28;20207;-61
2022/03/05 09:28:24;;;;;;;19.90;12.60;;;;;;;;;;5047228;28;20296;-60
2022/03/05 09:30:54;;;;;;;17.67;12.00;;;;;;;;;;5046465;28;20635;-62
2022/03/05 09:33:27;;;;;;;17.77;11.93;;;;;;;;;;5046518;28;20218;-61
2022/03/05 09:35:58;;;;;;;20.03;12.43;;;;;;;;;;5039276;28;20292;-61
2022/03/05 09:38:27;;;;;;;17.73;12.17;;;;;;;;;;5048422;28;20652;-62
2022/03/05 09:40:58;;;;;;;19.83;13.10;;;;;;;;;;5031245;28;20998;-62
2022/03/05 09:43:29;;;;;;;18.83;12.03;;;;;;;;;;5022631;28;20206;-62
2022/03/05 09:45:59;;;;;;;21.90;12.80;;;;;;;;;;5031308;28;20230;-62
2022/03/05 09:48:29;;;;;;;17.83;12.37;;;;;;;;;;5033608;28;20215;-62
2022/03/05 09:51:01;;;;;;;17.33;12.50;;;;;;;;;;5041567;28;20210;-61
2022/03/05 09:53:32;;;;;;;16.50;11.57;;;;;;;;;;5031715;28;20228;-61
2022/03/05 09:56:14;;;;;;;16.00;12.27;;;;;;;;;;5037849;28;20199;-61
2022/03/05 09:58:51;;;;;;;17.87;12.23;;;;;;;;;;5034390;28;20218;-62
2022/03/05 10:01:36;;;;;;;15.27;11.13;;;;;;;;;;5021753;28;20291;-61
2022/03/05 10:04:06;;;;;;;16.33;11.60;;;;;;;;;;5034582;28;20218;-61
2022/03/05 10:06:36;;;;;;;17.30;11.67;;;;;;;;;;5018013;28;20210;-61
2022/03/05 10:09:23;;;;;;;15.70;11.20;;;;;;;;;;5039008;28;20203;-61
2022/03/05 10:11:57;;;;;;;17.77;11.97;;;;;;;;;;5036053;28;20211;-61
2022/03/05 10:14:29;;;;;;;15.90;12.27;;;;;;;;;;5045146;28;20210;-63
2022/03/05 10:17:00;;;;;;;15.67;10.77;;;;;;;;;;5041064;28;20195;-64
2022/03/05 10:19:31;;;;;;;16.70;11.23;;;;;;;;;;5027383;28;20278;-64
2022/03/05 10:22:00;;;;;;;16.17;11.03;;;;;;;;;;5037535;28;20354;-64
2022/03/05 10:24:33;;;;;;;17.83;11.63;;;;;;;;;;5037050;28;20273;-64
2022/03/05 10:27:03;;;;;;;15.27;10.83;;;;;;;;;;5044876;28;20840;-65
2022/03/05 10:29:39;;;;;;;15.27;10.97;;;;;;;;;;5016671;28;20273;-64
2022/03/05 10:32:12;;;;;;;15.23;11.27;;;;;;;;;;5040024;28;20692;-65
2022/03/05 10:34:54;;;;;;;14.33;10.73;;;;;;;;;;5037284;28;20571;-65
2022/03/05 10:37:23;;;;;;;17.83;11.73;;;;;;;;;;5026618;28;20796;-64
2022/03/05 10:39:51;;;;;;;15.17;10.37;;;;;;;;;;5032502;28;20211;-63
2022/03/05 10:42:26;;;;;;;13.90;9.30;;;;;;;;;;5019902;28;20233;-63
2022/03/05 10:45:22;;;;;;;17.10;10.80;;;;;;;;;;5045983;28;20259;-63
2022/03/05 10:47:51;;;;;;;27.27;10.73;;;;;;;;;;5028921;28;20210;-64
2022/03/05 10:50:33;;;;;;;27.13;10.63;;;;;;;;;;5041256;28;20206;-63
2022/03/05 10:53:04;;;;;;;19.07;10.63;;;;;;;;;;5041409;28;20218;-64
2022/03/05 10:55:42;;;;;;;19.70;9.93;;;;;;;;;;5044938;28;20260;-64
2022/03/05 10:58:23;;;;;;;17.30;9.90;;;;;;;;;;5045124;28;20221;-63
2022/03/05 11:00:54;;;;;;;19.33;11.00;;;;;;;;;;5025229;28;20178;-64
2022/03/05 11:03:24;;;;;;;13.07;9.57;;;;;;;;;;5036974;28;20224;-63
2022/03/05 11:05:52;;;;;;;14.50;9.60;;;;;;;;;;5022343;28;20852;-64
2022/03/05 11:08:28;;;;;;;13.30;9.87;;;;;;;;;;5046119;28;20212;-65
2022/03/05 11:11:06;;;;;;;14.63;10.97;;;;;;;;;;5046232;28;20209;-65
2022/03/05 11:13:46;;;;;;;16.00;10.43;;;;;;;;;;5037695;28;20227;-63
2022/03/05 11:16:17;;;;;;;14.70;10.07;;;;;;;;;;5041315;28;20205;-64
2022/03/05 11:19:00;;;;;;;12.70;9.43;;;;;;;;;;5041213;28;20247;-65
2022/03/05 11:21:42;;;;;;;15.10;10.13;;;;;;;;;;5055799;28;20305;-65
2022/03/05 11:24:21;;;;;;;15.33;11.13;;;;;;;;;;5061309;28;20674;-66
2022/03/05 11:26:53;;;;;;;14.33;10.00;;;;;;;;;;5062363;28;20193;-66
2022/03/05 11:29:30;;;;;;;13.87;9.80;;;;;;;;;;5040330;28;20213;-64
2022/03/05 11:32:13;;;;;;;14.83;10.30;;;;;;;;;;5061438;28;20218;-65
2022/03/05 11:34:45;;;;;;;17.07;10.27;;;;;;;;;;5055557;28;20198;-65
2022/03/05 11:37:19;;;;;;;12.60;10.10;;;;;;;;;;5060579;28;20289;-65
2022/03/05 11:39:49;;;;;;;13.40;9.57;;;;;;;;;;5059122;28;20206;-64
2022/03/05 11:42:31;;;;;;;12.80;9.77;;;;;;;;;;5044028;28;20247;-64
2022/03/05 11:45:02;;;;;;;13.87;9.80;;;;;;;;;;5074001;28;20197;-63
2022/03/05 11:47:38;;;;;;;12.17;9.83;;;;;;;;;;5042872;28;20210;-65
2022/03/05 11:50:13;;;;;;;13.50;9.50;;;;;;;;;;5061602;28;20247;-64
2022/03/05 11:52:42;;;;;;;11.93;9.63;;;;;;;;;;5064959;28;20275;-64
2022/03/05 11:55:18;;;;;;;11.83;9.43;;;;;;;;;;5064989;28;20204;-64
2022/03/05 11:57:55;;;;;;;12.20;9.10;;;;;;;;;;5064981;28;20209;-63
2022/03/05 12:00:31;;;;;;;13.20;9.40;;;;;;;;;;5057958;28;20663;-64
2022/03/05 12:03:23;;;;;;;14.47;10.00;;;;;;;;;;5058791;28;20738;-63
2022/03/05 12:05:54;;;;;;;14.57;9.30;;;;;;;;;;5047244;28;20220;-63
2022/03/05 12:08:26;;;;;;;14.43;8.83;;;;;;;;;;5064745;28;20208;-62
2022/03/05 12:11:13;;;;;;;14.63;9.77;;;;;;;;;;5062440;28;20217;-62
2022/03/05 12:13:45;;;;;;;14.13;9.27;;;;;;;;;;5062826;28;20221;-64
2022/03/05 12:16:24;;;;;;;16.37;9.77;;;;;;;;;;5065601;28;20194;-63
2022/03/05 12:18:58;;;;;;;14.50;9.93;;;;;;;;;;5064457;28;20202;-62
2022/03/05 12:21:29;;;;;;;16.33;9.87;;;;;;;;;;5040589;28;20238;-63
2022/03/05 12:24:09;;;;;;;14.10;9.80;;;;;;;;;;5061770;28;20299;-62
2022/03/05 12:26:51;;;;;;;14.60;9.60;;;;;;;;;;5049672;28;20240;-63
2022/03/05 12:29:23;;;;;;;15.73;9.70;;;;;;;;;;5066214;28;20206;-63
2022/03/05 12:31:55;;;;;;;14.13;9.90;;;;;;;;;;5064015;28;20219;-63
2022/03/05 12:34:29;;;;;;;12.30;8.90;;;;;;;;;;5065260;28;20229;-64
2022/03/05 12:36:58;;;;;;;14.03;9.83;;;;;;;;;;5049765;28;20212;-62
2022/03/05 12:39:29;;;;;;;15.57;9.90;;;;;;;;;;5071000;28;20213;-63
2022/03/05 12:42:01;;;;;;;13.40;8.80;;;;;;;;;;5065060;28;20891;-62
2022/03/05 12:44:39;;;;;;;12.80;9.90;;;;;;;;;;5070278;28;20194;-63
2022/03/05 12:47:12;;;;;;;13.27;9.73;;;;;;;;;;5049392;28;20712;-62
2022/03/05 12:49:43;;;;;;;13.27;9.23;;;;;;;;;;5065741;28;20628;-64
2022/03/05 12:52:17;;;;;;;14.80;9.93;;;;;;;;;;5065795;28;20588;-63
2022/03/05 12:54:48;;;;;;;13.30;8.67;;;;;;;;;;5039931;28;20213;-63
2022/03/05 12:57:17;;;;;;;13.17;9.23;;;;;;;;;;5065507;28;20189;-64
2022/03/05 12:59:50;;;;;;;11.30;9.63;;;;;;;;;;5059940;28;20220;-63
2022/03/05 13:02:19;;;;;;;13.80;8.83;;;;;;;;;;5065600;28;20204;-63
2022/03/05 13:04:52;;;;;;;11.97;9.43;;;;;;;;;;5050112;28;20565;-63
2022/03/05 13:07:36;;;;;;;11.20;8.40;;;;;;;;;;5052373;28;20917;-62
2022/03/05 13:10:09;;;;;;;10.87;8.30;;;;;;;;;;5059278;28;20214;-62
2022/03/05 13:12:42;;;;;;;10.87;8.87;;;;;;;;;;5051626;28;20216;-62
2022/03/05 13:15:41;;;;;;;10.80;8.83;;;;;;;;;;5055796;28;20199;-65
2022/03/05 13:18:16;;;;;;;10.83;9.27;;;;;;;;;;5062834;28;20277;-63
2022/03/05 13:20:43;;;;;;;10.20;8.63;;;;;;;;;;5066809;28;20220;-66
2022/03/05 13:23:22;;;;;;;10.97;8.40;;;;;;;;;;5072711;28;20217;-66
2022/03/05 13:25:54;;;;;;;9.60;8.30;;;;;;;;;;5054066;28;20216;-64
2022/03/05 13:28:29;;;;;;;11.70;8.97;;;;;;;;;;5054602;28;20209;-64
2022/03/05 13:31:05;;;;;;;10.30;8.87;;;;;;;;;;5045177;28;20262;-65
2022/03/05 13:33:34;;;;;;;13.87;9.70;;;;;;;;;;5067402;28;20206;-64
2022/03/05 13:36:24;;;;;;;10.23;8.40;;;;;;;;;;5029506;28;20205;-64
2022/03/05 13:39:18;;;;;;;10.70;8.50;;;;;;;;;;5062680;28;20204;-64
2022/03/05 13:41:54;;;;;;;13.47;8.77;;;;;;;;;;5059355;28;20205;-65
2022/03/05 13:44:37;;;;;;;12.10;8.57;;;;;;;;;;5065971;28;20216;-67
2022/03/05 13:47:08;;;;;;;12.47;8.57;;;;;;;;;;5059254;28;20216;-64
2022/03/05 13:49:43;;;;;;;13.27;8.33;;;;;;;;;;5066545;28;20212;-65
2022/03/05 13:52:19;;;;;;;12.40;8.47;;;;;;;;;;5065510;28;20205;-65
2022/03/05 13:54:51;;;;;;;11.13;8.63;;;;;;;;;;5065895;28;20584;-66
2022/03/05 13:57:34;;;;;;;10.33;8.57;;;;;;;;;;5061819;28;20213;-63
2022/03/05 14:00:14;;;;;;;11.20;8.47;;;;;;;;;;5065253;28;20213;-63
2022/03/05 14:02:51;;;;;;;9.87;7.97;;;;;;;;;;5070332;28;20659;-66
2022/03/05 14:05:32;;;;;;;13.33;8.40;;;;;;;;;;5073966;28;20234;-64
2022/03/05 14:08:05;;;;;;;11.00;7.70;;;;;;;;;;5067652;28;20239;-63
2022/03/05 14:10:49;;;;;;;10.53;8.07;;;;;;;;;;5064870;28;20249;-64
2022/03/05 14:13:24;;;;;;;9.43;7.20;;;;;;;;;;5065979;28;20224;-64
2022/03/05 14:15:56;;;;;;;10.10;8.40;;;;;;;;;;5068902;28;20201;-64
2022/03/05 14:18:26;;;;;;;10.07;8.10;;;;;;;;;;5065548;28;20231;-64
2022/03/05 14:20:54;;;;;;;10.43;8.70;;;;;;;;;;5065948;28;20244;-64
2022/03/05 14:23:22;;;;;;;9.17;7.53;;;;;;;;;;5064163;28;20219;-64
2022/03/05 14:25:55;;;;;;;10.13;7.67;;;;;;;;;;5063645;28;20213;-64
2022/03/05 14:28:31;;;;;;;11.43;9.00;;;;;;;;;;5065456;28;20215;-63
2022/03/05 14:31:09;;;;;;;10.40;8.80;;;;;;;;;;5047159;28;20217;-66
2022/03/05 14:33:42;;;;;;;10.13;7.90;;;;;;;;;;5067161;28;20247;-65
2022/03/05 14:36:18;;;;;;;11.37;8.67;;;;;;;;;;5064998;28;20219;-65
2022/03/05 14:38:47;;;;;;;11.17;9.30;;;;;;;;;;5059915;28;20194;-66
2022/03/05 14:41:15;;;;;;;12.60;9.40;;;;;;;;;;5066864;28;20673;-65
2022/03/05 14:43:46;;;;;;;12.30;10.27;;;;;;;;;;5053513;28;20193;-64
2022/03/05 14:46:16;;;;;;;12.53;10.63;;;;;;;;;;5066058;28;20217;-64
2022/03/05 14:48:43;;;;;;;14.67;11.30;;;;;;;;;;5066150;28;20221;-65
2022/03/05 14:51:11;;;;;;;15.63;12.17;;;;;;;;;;5048864;28;20578;-64
2022/03/05 14:53:48;;;;;;;13.87;11.27;;;;;;;;;;5046103;28;20686;-64
2022/03/05 14:56:21;;;;;;;17.37;12.87;;;;;;;;;;5061935;28;20190;-66
2022/03/05 14:58:49;;;;;;;13.50;11.23;;;;;;;;;;5061750;28;20206;-64
2022/03/05 15:01:22;;;;;;;14.70;12.37;;;;;;;;;;5062596;28;20209;-65
2022/03/05 15:03:54;;;;;;;13.47;11.43;;;;;;;;;;5062233;28;20263;-65
2022/03/05 15:06:24;;;;;;;14.20;11.57;;;;;;;;;;5063130;28;20637;-63